sensor_id;sensor_type;location;lat;lon;timestamp;P1;durP1;ratioP1;P2;durP2;ratioP2
3549;SDS011;45572;48.804;8.330;2022-12-11T00:00:06;32.17;;;16.02;;
3549;SDS011;45572;48.804;8.330;2022-12-11T00:02:35;25.95;;;14.75;;
3549;SDS011;45572;48.804;8.330;2022-12-11T00:05:03;26.65;;;14.90;;
3549;SDS011;45572;48.804;8.330;2022-12-11T00:07:31;31.35;;;18.50;;
3549;SDS011;45572;48.804;8.330;2022-12-11T00:09:59;35.35;;;16.83;;
3549;SDS011;45572;48.804;8.330;2022-12-11T00:12:28;35.55;;;17.40;;
3549;SDS011;45572;48.804;8.330;2022-12-11T00:14:56;29.50;;;16.88;;
3549;SDS011;45572;48.804;8.330;2022-12-11T00:17:25;31.27;;;17.23;;
3549;SDS011;45572;48.804;8.330;2022-12-11T00:19:52;26.00;;;15.88;;
3549;SDS011;45572;48.804;8.330;2022-12-11T00:22:20;31.67;;;15.50;;
3549;SDS011;45572;48.804;8.330;2022-12-11T00:24:48;26.52;;;14.18;;
3549;SDS011;45572;48.804;8.330;2022-12-11T00:27:16;26.75;;;15.57;;
3549;SDS011;45572;48.804;8.330;2022-12-11T00:29:43;30.00;;;16.38;;
3549;SDS011;45572;48.804;8.330;2022-12-11T00:32:11;23.08;;;13.25;;
3549;SDS011;45572;48.804;8.330;2022-12-11T00:34:40;27.33;;;14.20;;
3549;SDS011;45572;48.804;8.330;2022-12-11T00:37:08;23.20;;;13.98;;
3549;SDS011;45572;48.804;8.330;2022-12-11T00:39:36;23.55;;;12.90;;
3549;SDS011;45572;48.804;8.330;2022-12-11T00:42:04;28.67;;;14.25;;
3549;SDS011;45572;48.804;8.330;2022-12-11T00:44:34;23.10;;;11.68;;
3549;SDS011;45572;48.804;8.330;2022-12-11T00:47:02;22.83;;;13.55;;
3549;SDS011;45572;48.804;8.330;2022-12-11T00:49:30;23.25;;;13.60;;
3549;SDS011;45572;48.804;8.330;2022-12-11T00:51:59;18.40;;;10.85;;
3549;SDS011;45572;48.804;8.330;2022-12-11T00:54:26;21.85;;;12.77;;
3549;SDS011;45572;48.804;8.330;2022-12-11T00:56:54;25.17;;;13.65;;
3549;SDS011;45572;48.804;8.330;2022-12-11T00:59:22;20.73;;;12.13;;
3549;SDS011;45572;48.804;8.330;2022-12-11T01:01:50;22.42;;;12.25;;
3549;SDS011;45572;48.804;8.330;2022-12-11T01:04:18;20.67;;;11.25;;
3549;SDS011;45572;48.804;8.330;2022-12-11T01:06:45;21.45;;;12.77;;
3549;SDS011;45572;48.804;8.330;2022-12-11T01:09:14;22.08;;;12.52;;
3549;SDS011;45572;48.804;8.330;2022-12-11T01:11:56;24.55;;;12.82;;
3549;SDS011;45572;48.804;8.330;2022-12-11T01:14:25;17.50;;;10.45;;
3549;SDS011;45572;48.804;8.330;2022-12-11T01:16:53;20.27;;;12.00;;
3549;SDS011;45572;48.804;8.330;2022-12-11T01:19:20;20.20;;;11.07;;
3549;SDS011;45572;48.804;8.330;2022-12-11T01:21:48;32.35;;;14.73;;
3549;SDS011;45572;48.804;8.330;2022-12-11T01:24:17;34.58;;;16.95;;
3549;SDS011;45572;48.804;8.330;2022-12-11T01:26:45;46.97;;;20.88;;
3549;SDS011;45572;48.804;8.330;2022-12-11T01:29:12;49.47;;;18.80;;
3549;SDS011;45572;48.804;8.330;2022-12-11T01:31:40;44.35;;;19.38;;
3549;SDS011;45572;48.804;8.330;2022-12-11T01:34:08;46.72;;;21.48;;
3549;SDS011;45572;48.804;8.330;2022-12-11T01:36:36;41.67;;;19.67;;
3549;SDS011;45572;48.804;8.330;2022-12-11T01:39:03;49.05;;;21.95;;
3549;SDS011;45572;48.804;8.330;2022-12-11T01:41:33;47.00;;;20.48;;
3549;SDS011;45572;48.804;8.330;2022-12-11T01:44:02;42.35;;;19.52;;
3549;SDS011;45572;48.804;8.330;2022-12-11T01:46:31;41.35;;;20.48;;
3549;SDS011;45572;48.804;8.330;2022-12-11T01:49:01;44.63;;;19.98;;
3549;SDS011;45572;48.804;8.330;2022-12-11T01:51:30;47.75;;;19.38;;
3549;SDS011;45572;48.804;8.330;2022-12-11T01:54:03;41.95;;;18.75;;
3549;SDS011;45572;48.804;8.330;2022-12-11T01:56:35;50.40;;;20.63;;
3549;SDS011;45572;48.804;8.330;2022-12-11T01:59:07;45.53;;;18.90;;
3549;SDS011;45572;48.804;8.330;2022-12-11T02:01:37;48.83;;;21.48;;
3549;SDS011;45572;48.804;8.330;2022-12-11T02:04:13;46.30;;;22.17;;
3549;SDS011;45572;48.804;8.330;2022-12-11T02:06:43;42.67;;;20.38;;
3549;SDS011;45572;48.804;8.330;2022-12-11T02:09:13;41.08;;;18.38;;
3549;SDS011;45572;48.804;8.330;2022-12-11T02:11:47;39.08;;;19.65;;
3549;SDS011;45572;48.804;8.330;2022-12-11T02:14:23;41.92;;;18.38;;
3549;SDS011;45572;48.804;8.330;2022-12-11T02:16:57;46.20;;;20.85;;
3549;SDS011;45572;48.804;8.330;2022-12-11T02:19:35;47.15;;;18.63;;
3549;SDS011;45572;48.804;8.330;2022-12-11T02:22:15;41.83;;;18.13;;
3549;SDS011;45572;48.804;8.330;2022-12-11T02:24:57;44.83;;;20.77;;
3549;SDS011;45572;48.804;8.330;2022-12-11T02:27:39;40.17;;;18.02;;
3549;SDS011;45572;48.804;8.330;2022-12-11T02:30:12;49.95;;;22.20;;
3549;SDS011;45572;48.804;8.330;2022-12-11T02:32:43;39.97;;;18.67;;
3549;SDS011;45572;48.804;8.330;2022-12-11T02:35:14;38.65;;;19.08;;
3549;SDS011;45572;48.804;8.330;2022-12-11T02:37:46;40.38;;;19.25;;
3549;SDS011;45572;48.804;8.330;2022-12-11T02:40:18;39.92;;;19.20;;
3549;SDS011;45572;48.804;8.330;2022-12-11T02:42:49;42.72;;;18.88;;
3549;SDS011;45572;48.804;8.330;2022-12-11T02:45:19;47.88;;;19.83;;
3549;SDS011;45572;48.804;8.330;2022-12-11T02:47:48;47.70;;;23.25;;
3549;SDS011;45572;48.804;8.330;2022-12-11T02:50:19;47.03;;;20.92;;
3549;SDS011;45572;48.804;8.330;2022-12-11T02:52:49;43.50;;;19.83;;
3549;SDS011;45572;48.804;8.330;2022-12-11T02:55:20;45.83;;;20.23;;
3549;SDS011;45572;48.804;8.330;2022-12-11T02:57:50;49.63;;;21.95;;
3549;SDS011;45572;48.804;8.330;2022-12-11T03:00:25;44.35;;;18.95;;
3549;SDS011;45572;48.804;8.330;2022-12-11T03:02:53;46.75;;;20.70;;
3549;SDS011;45572;48.804;8.330;2022-12-11T03:05:21;45.92;;;20.05;;
3549;SDS011;45572;48.804;8.330;2022-12-11T03:07:48;42.40;;;19.58;;
3549;SDS011;45572;48.804;8.330;2022-12-11T03:10:16;38.72;;;18.80;;
3549;SDS011;45572;48.804;8.330;2022-12-11T03:12:47;46.55;;;21.90;;
3549;SDS011;45572;48.804;8.330;2022-12-11T03:15:19;42.45;;;20.52;;
3549;SDS011;45572;48.804;8.330;2022-12-11T03:17:53;42.70;;;21.33;;
3549;SDS011;45572;48.804;8.330;2022-12-11T03:20:30;50.60;;;18.90;;
3549;SDS011;45572;48.804;8.330;2022-12-11T03:23:03;40.33;;;19.42;;
3549;SDS011;45572;48.804;8.330;2022-12-11T03:25:42;41.75;;;19.77;;
3549;SDS011;45572;48.804;8.330;2022-12-11T03:28:18;42.67;;;19.67;;
3549;SDS011;45572;48.804;8.330;2022-12-11T03:30:50;47.00;;;19.38;;
3549;SDS011;45572;48.804;8.330;2022-12-11T03:33:23;46.95;;;20.33;;
3549;SDS011;45572;48.804;8.330;2022-12-11T03:35:55;48.72;;;21.00;;
3549;SDS011;45572;48.804;8.330;2022-12-11T03:38:28;54.05;;;22.83;;
3549;SDS011;45572;48.804;8.330;2022-12-11T03:41:00;44.45;;;20.15;;
3549;SDS011;45572;48.804;8.330;2022-12-11T03:43:30;43.00;;;19.45;;
3549;SDS011;45572;48.804;8.330;2022-12-11T03:46:00;48.33;;;20.83;;
3549;SDS011;45572;48.804;8.330;2022-12-11T03:48:31;45.20;;;19.45;;
3549;SDS011;45572;48.804;8.330;2022-12-11T03:51:03;42.60;;;19.17;;
3549;SDS011;45572;48.804;8.330;2022-12-11T03:53:33;45.45;;;21.65;;
3549;SDS011;45572;48.804;8.330;2022-12-11T03:56:02;39.45;;;19.17;;
3549;SDS011;45572;48.804;8.330;2022-12-11T03:58:32;49.08;;;21.25;;
3549;SDS011;45572;48.804;8.330;2022-12-11T04:01:00;44.60;;;21.23;;
3549;SDS011;45572;48.804;8.330;2022-12-11T04:03:29;49.17;;;23.33;;
3549;SDS011;45572;48.804;8.330;2022-12-11T04:05:57;54.00;;;21.10;;
3549;SDS011;45572;48.804;8.330;2022-12-11T04:08:24;47.92;;;22.40;;
3549;SDS011;45572;48.804;8.330;2022-12-11T04:10:52;47.55;;;21.33;;
3549;SDS011;45572;48.804;8.330;2022-12-11T04:13:34;51.95;;;20.33;;
3549;SDS011;45572;48.804;8.330;2022-12-11T04:16:02;44.28;;;20.20;;
3549;SDS011;45572;48.804;8.330;2022-12-11T04:18:30;52.92;;;20.83;;
3549;SDS011;45572;48.804;8.330;2022-12-11T04:21:12;49.90;;;18.80;;
3549;SDS011;45572;48.804;8.330;2022-12-11T04:23:54;46.30;;;20.02;;
3549;SDS011;45572;48.804;8.330;2022-12-11T04:26:36;46.72;;;21.05;;
3549;SDS011;45572;48.804;8.330;2022-12-11T04:29:03;48.40;;;20.48;;
3549;SDS011;45572;48.804;8.330;2022-12-11T04:31:31;46.20;;;20.38;;
3549;SDS011;45572;48.804;8.330;2022-12-11T04:34:00;53.05;;;22.38;;
3549;SDS011;45572;48.804;8.330;2022-12-11T04:36:28;59.45;;;21.63;;
3549;SDS011;45572;48.804;8.330;2022-12-11T04:38:56;42.63;;;21.15;;
3549;SDS011;45572;48.804;8.330;2022-12-11T04:41:23;43.00;;;19.70;;
3549;SDS011;45572;48.804;8.330;2022-12-11T04:43:51;47.80;;;20.48;;
3549;SDS011;45572;48.804;8.330;2022-12-11T04:46:19;57.85;;;21.20;;
3549;SDS011;45572;48.804;8.330;2022-12-11T04:48:49;52.50;;;23.20;;
3549;SDS011;45572;48.804;8.330;2022-12-11T04:51:24;55.30;;;21.90;;
3549;SDS011;45572;48.804;8.330;2022-12-11T04:53:53;44.60;;;20.00;;
3549;SDS011;45572;48.804;8.330;2022-12-11T04:56:21;53.25;;;21.33;;
3549;SDS011;45572;48.804;8.330;2022-12-11T04:58:48;45.15;;;19.58;;
3549;SDS011;45572;48.804;8.330;2022-12-11T05:01:17;48.58;;;21.48;;
3549;SDS011;45572;48.804;8.330;2022-12-11T05:03:46;46.40;;;20.10;;
3549;SDS011;45572;48.804;8.330;2022-12-11T05:06:14;48.00;;;19.40;;
3549;SDS011;45572;48.804;8.330;2022-12-11T05:08:43;38.72;;;20.05;;
3549;SDS011;45572;48.804;8.330;2022-12-11T05:11:12;43.42;;;20.25;;
3549;SDS011;45572;48.804;8.330;2022-12-11T05:13:42;46.33;;;19.38;;
3549;SDS011;45572;48.804;8.330;2022-12-11T05:16:11;44.65;;;20.73;;
3549;SDS011;45572;48.804;8.330;2022-12-11T05:18:41;44.30;;;22.17;;
3549;SDS011;45572;48.804;8.330;2022-12-11T05:21:09;43.67;;;19.52;;
3549;SDS011;45572;48.804;8.330;2022-12-11T05:23:38;41.25;;;19.95;;
3549;SDS011;45572;48.804;8.330;2022-12-11T05:26:09;48.13;;;20.92;;
3549;SDS011;45572;48.804;8.330;2022-12-11T05:28:39;53.00;;;19.90;;
3549;SDS011;45572;48.804;8.330;2022-12-11T05:31:07;52.28;;;20.15;;
3549;SDS011;45572;48.804;8.330;2022-12-11T05:33:38;42.67;;;19.02;;
3549;SDS011;45572;48.804;8.330;2022-12-11T05:36:07;42.13;;;19.85;;
3549;SDS011;45572;48.804;8.330;2022-12-11T05:38:35;51.85;;;22.20;;
3549;SDS011;45572;48.804;8.330;2022-12-11T05:41:03;48.95;;;21.20;;
3549;SDS011;45572;48.804;8.330;2022-12-11T05:43:34;53.97;;;21.83;;
3549;SDS011;45572;48.804;8.330;2022-12-11T05:46:04;45.95;;;20.33;;
3549;SDS011;45572;48.804;8.330;2022-12-11T05:48:33;41.45;;;20.95;;
3549;SDS011;45572;48.804;8.330;2022-12-11T05:51:02;46.20;;;20.15;;
3549;SDS011;45572;48.804;8.330;2022-12-11T05:53:31;56.05;;;22.17;;
3549;SDS011;45572;48.804;8.330;2022-12-11T05:56:00;43.13;;;19.73;;
3549;SDS011;45572;48.804;8.330;2022-12-11T05:58:28;50.92;;;21.33;;
3549;SDS011;45572;48.804;8.330;2022-12-11T06:00:58;50.05;;;21.25;;
3549;SDS011;45572;48.804;8.330;2022-12-11T06:03:25;53.08;;;22.85;;
3549;SDS011;45572;48.804;8.330;2022-12-11T06:05:53;48.65;;;21.08;;
3549;SDS011;45572;48.804;8.330;2022-12-11T06:08:21;53.70;;;21.83;;
3549;SDS011;45572;48.804;8.330;2022-12-11T06:10:49;51.58;;;21.30;;
3549;SDS011;45572;48.804;8.330;2022-12-11T06:13:17;56.85;;;23.52;;
3549;SDS011;45572;48.804;8.330;2022-12-11T06:15:45;52.55;;;23.30;;
3549;SDS011;45572;48.804;8.330;2022-12-11T06:18:14;42.97;;;20.90;;
3549;SDS011;45572;48.804;8.330;2022-12-11T06:20:42;51.30;;;21.05;;
3549;SDS011;45572;48.804;8.330;2022-12-11T06:23:10;54.40;;;21.13;;
3549;SDS011;45572;48.804;8.330;2022-12-11T06:25:38;46.05;;;21.35;;
3549;SDS011;45572;48.804;8.330;2022-12-11T06:28:06;52.10;;;20.90;;
3549;SDS011;45572;48.804;8.330;2022-12-11T06:30:34;49.65;;;20.77;;
3549;SDS011;45572;48.804;8.330;2022-12-11T06:33:04;53.33;;;22.13;;
3549;SDS011;45572;48.804;8.330;2022-12-11T06:35:33;44.63;;;20.90;;
3549;SDS011;45572;48.804;8.330;2022-12-11T06:38:07;44.28;;;19.80;;
3549;SDS011;45572;48.804;8.330;2022-12-11T06:40:35;55.65;;;22.60;;
3549;SDS011;45572;48.804;8.330;2022-12-11T06:43:03;62.35;;;24.67;;
3549;SDS011;45572;48.804;8.330;2022-12-11T06:45:31;51.60;;;22.42;;
3549;SDS011;45572;48.804;8.330;2022-12-11T06:47:58;56.15;;;21.00;;
3549;SDS011;45572;48.804;8.330;2022-12-11T06:50:26;47.50;;;21.95;;
3549;SDS011;45572;48.804;8.330;2022-12-11T06:52:55;48.80;;;20.73;;
3549;SDS011;45572;48.804;8.330;2022-12-11T06:55:23;44.80;;;22.13;;
3549;SDS011;45572;48.804;8.330;2022-12-11T06:57:51;51.83;;;22.88;;
3549;SDS011;45572;48.804;8.330;2022-12-11T07:00:19;51.03;;;21.63;;
3549;SDS011;45572;48.804;8.330;2022-12-11T07:02:46;50.22;;;20.95;;
3549;SDS011;45572;48.804;8.330;2022-12-11T07:05:16;48.78;;;21.88;;
3549;SDS011;45572;48.804;8.330;2022-12-11T07:07:44;55.97;;;23.55;;
3549;SDS011;45572;48.804;8.330;2022-12-11T07:10:14;59.63;;;23.35;;
3549;SDS011;45572;48.804;8.330;2022-12-11T07:12:42;49.20;;;22.30;;
3549;SDS011;45572;48.804;8.330;2022-12-11T07:15:10;47.15;;;21.05;;
3549;SDS011;45572;48.804;8.330;2022-12-11T07:17:38;46.10;;;22.90;;
3549;SDS011;45572;48.804;8.330;2022-12-11T07:20:06;56.38;;;22.42;;
3549;SDS011;45572;48.804;8.330;2022-12-11T07:22:35;49.28;;;23.40;;
3549;SDS011;45572;48.804;8.330;2022-12-11T07:25:11;43.67;;;20.90;;
3549;SDS011;45572;48.804;8.330;2022-12-11T07:27:40;53.53;;;22.80;;
3549;SDS011;45572;48.804;8.330;2022-12-11T07:30:08;56.90;;;24.15;;
3549;SDS011;45572;48.804;8.330;2022-12-11T07:32:37;49.85;;;24.42;;
3549;SDS011;45572;48.804;8.330;2022-12-11T07:35:05;54.50;;;22.35;;
3549;SDS011;45572;48.804;8.330;2022-12-11T07:37:33;45.13;;;21.92;;
3549;SDS011;45572;48.804;8.330;2022-12-11T07:40:01;47.63;;;19.52;;
3549;SDS011;45572;48.804;8.330;2022-12-11T07:42:29;50.28;;;22.50;;
3549;SDS011;45572;48.804;8.330;2022-12-11T07:44:58;47.25;;;20.02;;
3549;SDS011;45572;48.804;8.330;2022-12-11T07:47:26;47.90;;;20.60;;
3549;SDS011;45572;48.804;8.330;2022-12-11T07:49:54;47.03;;;20.25;;
3549;SDS011;45572;48.804;8.330;2022-12-11T07:52:22;44.90;;;19.02;;
3549;SDS011;45572;48.804;8.330;2022-12-11T07:54:49;47.22;;;20.08;;
3549;SDS011;45572;48.804;8.330;2022-12-11T07:57:17;44.20;;;19.10;;
3549;SDS011;45572;48.804;8.330;2022-12-11T07:59:45;39.95;;;18.08;;
3549;SDS011;45572;48.804;8.330;2022-12-11T08:02:14;45.85;;;20.73;;
3549;SDS011;45572;48.804;8.330;2022-12-11T08:04:42;41.95;;;19.50;;
3549;SDS011;45572;48.804;8.330;2022-12-11T08:07:09;48.83;;;21.85;;
3549;SDS011;45572;48.804;8.330;2022-12-11T08:09:37;60.88;;;22.83;;
3549;SDS011;45572;48.804;8.330;2022-12-11T08:12:05;52.72;;;24.42;;
3549;SDS011;45572;48.804;8.330;2022-12-11T08:14:33;59.63;;;24.38;;
3549;SDS011;45572;48.804;8.330;2022-12-11T08:17:01;48.90;;;23.00;;
3549;SDS011;45572;48.804;8.330;2022-12-11T08:19:30;50.95;;;23.50;;
3549;SDS011;45572;48.804;8.330;2022-12-11T08:21:58;47.50;;;22.08;;
3549;SDS011;45572;48.804;8.330;2022-12-11T08:24:25;53.60;;;21.85;;
3549;SDS011;45572;48.804;8.330;2022-12-11T08:26:53;49.15;;;21.10;;
3549;SDS011;45572;48.804;8.330;2022-12-11T08:29:21;50.78;;;21.75;;
3549;SDS011;45572;48.804;8.330;2022-12-11T08:31:49;51.17;;;23.73;;
3549;SDS011;45572;48.804;8.330;2022-12-11T08:34:16;43.67;;;21.60;;
3549;SDS011;45572;48.804;8.330;2022-12-11T08:36:46;56.60;;;23.35;;
3549;SDS011;45572;48.804;8.330;2022-12-11T08:39:13;51.60;;;21.85;;
3549;SDS011;45572;48.804;8.330;2022-12-11T08:41:41;42.92;;;19.92;;
3549;SDS011;45572;48.804;8.330;2022-12-11T08:44:09;54.53;;;22.25;;
3549;SDS011;45572;48.804;8.330;2022-12-11T08:46:42;58.08;;;29.60;;
3549;SDS011;45572;48.804;8.330;2022-12-11T08:49:10;61.25;;;27.00;;
3549;SDS011;45572;48.804;8.330;2022-12-11T08:51:38;58.03;;;26.58;;
3549;SDS011;45572;48.804;8.330;2022-12-11T08:54:07;51.22;;;23.90;;
3549;SDS011;45572;48.804;8.330;2022-12-11T08:56:36;58.67;;;24.35;;
3549;SDS011;45572;48.804;8.330;2022-12-11T08:59:03;57.08;;;24.60;;
3549;SDS011;45572;48.804;8.330;2022-12-11T09:01:31;45.83;;;22.08;;
3549;SDS011;45572;48.804;8.330;2022-12-11T09:03:59;51.30;;;24.05;;
3549;SDS011;45572;48.804;8.330;2022-12-11T09:06:28;53.83;;;26.10;;
3549;SDS011;45572;48.804;8.330;2022-12-11T09:08:58;49.67;;;24.38;;
3549;SDS011;45572;48.804;8.330;2022-12-11T09:11:28;54.30;;;24.40;;
3549;SDS011;45572;48.804;8.330;2022-12-11T09:13:57;44.97;;;21.83;;
3549;SDS011;45572;48.804;8.330;2022-12-11T09:16:33;48.58;;;21.90;;
3549;SDS011;45572;48.804;8.330;2022-12-11T09:19:02;44.70;;;20.55;;
3549;SDS011;45572;48.804;8.330;2022-12-11T09:21:32;47.05;;;22.40;;
3549;SDS011;45572;48.804;8.330;2022-12-11T09:24:00;43.00;;;21.67;;
3549;SDS011;45572;48.804;8.330;2022-12-11T09:26:29;44.53;;;20.73;;
3549;SDS011;45572;48.804;8.330;2022-12-11T09:28:57;44.40;;;19.40;;
3549;SDS011;45572;48.804;8.330;2022-12-11T09:31:26;37.53;;;18.70;;
3549;SDS011;45572;48.804;8.330;2022-12-11T09:33:56;37.33;;;18.45;;
3549;SDS011;45572;48.804;8.330;2022-12-11T09:36:25;40.17;;;18.20;;
3549;SDS011;45572;48.804;8.330;2022-12-11T09:38:53;37.80;;;17.75;;
3549;SDS011;45572;48.804;8.330;2022-12-11T09:41:26;39.00;;;17.38;;
3549;SDS011;45572;48.804;8.330;2022-12-11T09:44:01;38.45;;;17.75;;
3549;SDS011;45572;48.804;8.330;2022-12-11T09:46:39;35.50;;;16.98;;
3549;SDS011;45572;48.804;8.330;2022-12-11T09:49:11;38.58;;;16.98;;
3549;SDS011;45572;48.804;8.330;2022-12-11T09:51:51;38.50;;;18.80;;
3549;SDS011;45572;48.804;8.330;2022-12-11T09:54:28;39.13;;;19.10;;
3549;SDS011;45572;48.804;8.330;2022-12-11T09:56:58;36.30;;;17.25;;
3549;SDS011;45572;48.804;8.330;2022-12-11T09:59:32;34.72;;;16.38;;
3549;SDS011;45572;48.804;8.330;2022-12-11T10:02:13;40.95;;;18.80;;
3549;SDS011;45572;48.804;8.330;2022-12-11T10:04:57;40.25;;;17.50;;
3549;SDS011;45572;48.804;8.330;2022-12-11T10:07:35;29.75;;;15.75;;
3549;SDS011;45572;48.804;8.330;2022-12-11T10:10:10;35.58;;;18.85;;
3549;SDS011;45572;48.804;8.330;2022-12-11T10:12:46;36.17;;;17.13;;
3549;SDS011;45572;48.804;8.330;2022-12-11T10:15:24;39.05;;;17.48;;
3549;SDS011;45572;48.804;8.330;2022-12-11T10:17:57;37.33;;;16.52;;
3549;SDS011;45572;48.804;8.330;2022-12-11T10:20:31;31.20;;;15.15;;
3549;SDS011;45572;48.804;8.330;2022-12-11T10:23:04;33.42;;;15.50;;
3549;SDS011;45572;48.804;8.330;2022-12-11T10:25:34;32.90;;;17.55;;
3549;SDS011;45572;48.804;8.330;2022-12-11T10:28:09;37.47;;;17.73;;
3549;SDS011;45572;48.804;8.330;2022-12-11T10:30:40;41.88;;;17.17;;
3549;SDS011;45572;48.804;8.330;2022-12-11T10:33:17;27.67;;;14.60;;
3549;SDS011;45572;48.804;8.330;2022-12-11T10:35:48;26.27;;;14.75;;
3549;SDS011;45572;48.804;8.330;2022-12-11T10:38:20;28.10;;;14.18;;
3549;SDS011;45572;48.804;8.330;2022-12-11T10:40:54;36.50;;;15.93;;
3549;SDS011;45572;48.804;8.330;2022-12-11T10:43:33;24.88;;;12.77;;
3549;SDS011;45572;48.804;8.330;2022-12-11T10:46:02;30.10;;;15.27;;
3549;SDS011;45572;48.804;8.330;2022-12-11T10:48:32;31.48;;;16.35;;
3549;SDS011;45572;48.804;8.330;2022-12-11T10:51:00;35.35;;;16.58;;
3549;SDS011;45572;48.804;8.330;2022-12-11T10:53:32;36.95;;;18.17;;
3549;SDS011;45572;48.804;8.330;2022-12-11T10:56:01;38.03;;;17.02;;
3549;SDS011;45572;48.804;8.330;2022-12-11T10:58:29;36.88;;;16.10;;
3549;SDS011;45572;48.804;8.330;2022-12-11T11:01:03;31.10;;;17.15;;
3549;SDS011;45572;48.804;8.330;2022-12-11T11:03:34;30.60;;;15.10;;
3549;SDS011;45572;48.804;8.330;2022-12-11T11:06:13;30.88;;;16.58;;
3549;SDS011;45572;48.804;8.330;2022-12-11T11:08:44;32.72;;;16.02;;
3549;SDS011;45572;48.804;8.330;2022-12-11T11:11:20;28.67;;;13.98;;
3549;SDS011;45572;48.804;8.330;2022-12-11T11:13:51;26.42;;;15.55;;
3549;SDS011;45572;48.804;8.330;2022-12-11T11:16:32;28.42;;;15.57;;
3549;SDS011;45572;48.804;8.330;2022-12-11T11:19:03;34.92;;;15.57;;
3549;SDS011;45572;48.804;8.330;2022-12-11T11:21:33;33.67;;;15.15;;
3549;SDS011;45572;48.804;8.330;2022-12-11T11:24:02;29.70;;;13.95;;
3549;SDS011;45572;48.804;8.330;2022-12-11T11:26:30;31.80;;;15.23;;
3549;SDS011;45572;48.804;8.330;2022-12-11T11:29:21;31.58;;;15.60;;
3549;SDS011;45572;48.804;8.330;2022-12-11T11:31:55;30.13;;;14.55;;
3549;SDS011;45572;48.804;8.330;2022-12-11T11:34:25;27.10;;;14.35;;
3549;SDS011;45572;48.804;8.330;2022-12-11T11:36:57;27.40;;;17.92;;
3549;SDS011;45572;48.804;8.330;2022-12-11T11:39:31;36.25;;;15.18;;
3549;SDS011;45572;48.804;8.330;2022-12-11T11:42:05;31.40;;;15.15;;
3549;SDS011;45572;48.804;8.330;2022-12-11T11:44:39;29.77;;;16.02;;
3549;SDS011;45572;48.804;8.330;2022-12-11T11:47:16;20.77;;;13.30;;
3549;SDS011;45572;48.804;8.330;2022-12-11T11:49:49;27.58;;;15.50;;
3549;SDS011;45572;48.804;8.330;2022-12-11T11:52:27;28.77;;;14.82;;
3549;SDS011;45572;48.804;8.330;2022-12-11T11:55:00;28.17;;;15.10;;
3549;SDS011;45572;48.804;8.330;2022-12-11T11:57:36;29.38;;;15.13;;
3549;SDS011;45572;48.804;8.330;2022-12-11T12:00:14;27.75;;;13.85;;
3549;SDS011;45572;48.804;8.330;2022-12-11T12:02:47;25.85;;;14.80;;
3549;SDS011;45572;48.804;8.330;2022-12-11T12:05:21;34.22;;;15.20;;
3549;SDS011;45572;48.804;8.330;2022-12-11T12:07:56;30.42;;;15.90;;
3549;SDS011;45572;48.804;8.330;2022-12-11T12:10:33;30.88;;;15.15;;
3549;SDS011;45572;48.804;8.330;2022-12-11T12:13:12;32.28;;;15.82;;
3549;SDS011;45572;48.804;8.330;2022-12-11T12:16:13;35.20;;;16.98;;
3549;SDS011;45572;48.804;8.330;2022-12-11T12:19:11;37.85;;;16.30;;
3549;SDS011;45572;48.804;8.330;2022-12-11T12:21:46;29.00;;;16.15;;
3549;SDS011;45572;48.804;8.330;2022-12-11T12:24:19;40.03;;;16.92;;
3549;SDS011;45572;48.804;8.330;2022-12-11T12:26:58;25.80;;;13.73;;
3549;SDS011;45572;48.804;8.330;2022-12-11T12:29:32;29.92;;;14.77;;
3549;SDS011;45572;48.804;8.330;2022-12-11T12:32:12;35.38;;;16.05;;
3549;SDS011;45572;48.804;8.330;2022-12-11T12:34:53;29.98;;;15.68;;
3549;SDS011;45572;48.804;8.330;2022-12-11T12:37:33;34.03;;;15.90;;
3549;SDS011;45572;48.804;8.330;2022-12-11T12:40:13;31.27;;;15.98;;
3549;SDS011;45572;48.804;8.330;2022-12-11T12:42:51;30.75;;;14.55;;
3549;SDS011;45572;48.804;8.330;2022-12-11T12:45:27;32.22;;;15.32;;
3549;SDS011;45572;48.804;8.330;2022-12-11T12:48:01;24.98;;;14.90;;
3549;SDS011;45572;48.804;8.330;2022-12-11T12:50:32;34.05;;;15.55;;
3549;SDS011;45572;48.804;8.330;2022-12-11T12:53:03;25.70;;;15.30;;
3549;SDS011;45572;48.804;8.330;2022-12-11T12:55:32;29.88;;;16.90;;
3549;SDS011;45572;48.804;8.330;2022-12-11T12:58:02;33.15;;;15.35;;
3549;SDS011;45572;48.804;8.330;2022-12-11T13:00:32;33.60;;;17.80;;
3549;SDS011;45572;48.804;8.330;2022-12-11T13:03:02;30.30;;;16.08;;
3549;SDS011;45572;48.804;8.330;2022-12-11T13:05:42;31.75;;;16.75;;
3549;SDS011;45572;48.804;8.330;2022-12-11T13:08:11;31.88;;;16.73;;
3549;SDS011;45572;48.804;8.330;2022-12-11T13:10:55;37.40;;;17.48;;
3549;SDS011;45572;48.804;8.330;2022-12-11T13:13:31;53.03;;;21.35;;
3549;SDS011;45572;48.804;8.330;2022-12-11T13:18:53;58.05;;;27.52;;
3549;SDS011;45572;48.804;8.330;2022-12-11T13:21:25;59.08;;;27.38;;
3549;SDS011;45572;48.804;8.330;2022-12-11T13:26:41;33.30;;;17.60;;
3549;SDS011;45572;48.804;8.330;2022-12-11T13:31:57;33.30;;;17.08;;
3549;SDS011;45572;48.804;8.330;2022-12-11T13:34:27;35.30;;;16.13;;
3549;SDS011;45572;48.804;8.330;2022-12-11T13:36:59;32.50;;;17.23;;
3549;SDS011;45572;48.804;8.330;2022-12-11T13:39:29;35.38;;;16.70;;
3549;SDS011;45572;48.804;8.330;2022-12-11T13:42:00;31.88;;;16.83;;
3549;SDS011;45572;48.804;8.330;2022-12-11T13:44:32;29.95;;;14.93;;
3549;SDS011;45572;48.804;8.330;2022-12-11T13:47:04;32.30;;;16.33;;
3549;SDS011;45572;48.804;8.330;2022-12-11T13:49:40;34.65;;;16.90;;
3549;SDS011;45572;48.804;8.330;2022-12-11T13:52:15;31.52;;;15.35;;
3549;SDS011;45572;48.804;8.330;2022-12-11T13:54:46;33.92;;;16.60;;
3549;SDS011;45572;48.804;8.330;2022-12-11T13:57:16;32.00;;;17.25;;
3549;SDS011;45572;48.804;8.330;2022-12-11T13:59:47;33.30;;;17.63;;
3549;SDS011;45572;48.804;8.330;2022-12-11T14:02:18;35.92;;;18.75;;
3549;SDS011;45572;48.804;8.330;2022-12-11T14:04:50;34.28;;;16.67;;
3549;SDS011;45572;48.804;8.330;2022-12-11T14:07:24;32.58;;;18.80;;
3549;SDS011;45572;48.804;8.330;2022-12-11T14:09:58;35.03;;;18.80;;
3549;SDS011;45572;48.804;8.330;2022-12-11T14:12:32;35.28;;;17.98;;
3549;SDS011;45572;48.804;8.330;2022-12-11T14:15:02;33.83;;;17.15;;
3549;SDS011;45572;48.804;8.330;2022-12-11T14:17:31;32.08;;;16.35;;
3549;SDS011;45572;48.804;8.330;2022-12-11T14:20:02;33.05;;;19.40;;
3549;SDS011;45572;48.804;8.330;2022-12-11T14:22:34;37.15;;;18.08;;
3549;SDS011;45572;48.804;8.330;2022-12-11T14:25:12;35.20;;;18.73;;
3549;SDS011;45572;48.804;8.330;2022-12-11T14:27:47;42.00;;;18.65;;
3549;SDS011;45572;48.804;8.330;2022-12-11T14:30:21;37.63;;;18.45;;
3549;SDS011;45572;48.804;8.330;2022-12-11T14:32:50;33.83;;;17.65;;
3549;SDS011;45572;48.804;8.330;2022-12-11T14:35:23;40.10;;;20.23;;
3549;SDS011;45572;48.804;8.330;2022-12-11T14:37:53;36.13;;;17.77;;
3549;SDS011;45572;48.804;8.330;2022-12-11T14:40:24;32.42;;;18.13;;
3549;SDS011;45572;48.804;8.330;2022-12-11T14:42:56;32.10;;;16.15;;
3549;SDS011;45572;48.804;8.330;2022-12-11T14:45:29;42.58;;;18.90;;
3549;SDS011;45572;48.804;8.330;2022-12-11T14:48:03;36.83;;;18.15;;
3549;SDS011;45572;48.804;8.330;2022-12-11T14:50:36;36.35;;;18.70;;
3549;SDS011;45572;48.804;8.330;2022-12-11T14:53:12;30.40;;;17.63;;
3549;SDS011;45572;48.804;8.330;2022-12-11T14:55:44;31.13;;;18.00;;
3549;SDS011;45572;48.804;8.330;2022-12-11T14:58:15;33.80;;;19.67;;
3549;SDS011;45572;48.804;8.330;2022-12-11T15:00:55;39.88;;;21.88;;
3549;SDS011;45572;48.804;8.330;2022-12-11T15:03:28;38.67;;;18.95;;